createdAt,value
2019-05-06T00:01:34.122Z,4.92
2019-05-06T00:04:04.643Z,4.92
2019-05-06T00:06:34.414Z,4.03
2019-05-06T00:09:04.755Z,4.72
2019-05-06T00:11:34.694Z,4.62
2019-05-06T00:14:03.963Z,5.35
2019-05-06T00:16:34.461Z,4.67
2019-05-06T00:19:04.889Z,4.45
2019-05-06T00:21:35.273Z,5.00
2019-05-06T00:24:03.916Z,4.33
2019-05-06T00:26:57.412Z,4.92
2019-05-06T00:29:27.221Z,4.37
2019-05-06T00:31:57.444Z,6.50
2019-05-06T00:34:25.730Z,5.75
2019-05-06T00:36:54.501Z,5.30
2019-05-06T00:39:44.423Z,6.05
2019-05-06T00:42:31.255Z,6.45
2019-05-06T00:44:59.587Z,6.35
2019-05-06T00:47:28.614Z,6.00
2019-05-06T00:49:57.038Z,6.47
2019-05-06T00:52:26.074Z,6.30
2019-05-06T00:54:54.970Z,5.97
2019-05-06T00:57:43.769Z,6.60
2019-05-06T01:00:17.992Z,5.92
2019-05-06T01:02:46.216Z,5.70
2019-05-06T01:05:15.119Z,4.97
2019-05-06T01:07:43.973Z,6.20
2019-05-06T01:10:14.438Z,7.08
2019-05-06T01:12:49.420Z,6.47
2019-05-06T01:15:18.935Z,6.72
2019-05-06T01:17:47.464Z,6.92
2019-05-06T01:20:16.991Z,6.22
2019-05-06T01:22:45.128Z,6.83
2019-05-06T01:25:14.422Z,7.45
2019-05-06T01:27:44.431Z,6.45
2019-05-06T01:30:14.706Z,7.22
2019-05-06T01:32:43.676Z,6.90
2019-05-06T01:35:13.901Z,6.22
2019-05-06T01:37:44.357Z,7.30
2019-05-06T01:40:38.246Z,7.15
2019-05-06T01:43:17.255Z,7.30
2019-05-06T01:45:45.385Z,7.10
2019-05-06T01:48:15.707Z,7.25
2019-05-06T01:50:44.502Z,8.70
2019-05-06T01:53:14.050Z,6.25
2019-05-06T01:55:43.791Z,6.50
2019-05-06T01:58:12.111Z,6.40
2019-05-06T02:00:40.059Z,6.85
2019-05-06T02:03:08.595Z,6.65
2019-05-06T02:05:36.658Z,7.00
2019-05-06T02:08:04.750Z,7.25
2019-05-06T02:10:34.964Z,7.12
2019-05-06T02:13:03.878Z,6.78
2019-05-06T02:15:31.841Z,7.58
2019-05-06T02:18:00.104Z,5.95
2019-05-06T02:20:28.031Z,6.45
2019-05-06T02:23:10.365Z,7.00
2019-05-06T02:25:44.573Z,6.62
2019-05-06T02:28:14.221Z,6.60
2019-05-06T02:31:05.435Z,8.00
2019-05-06T02:33:48.382Z,6.95
2019-05-06T02:36:38.546Z,7.15
2019-05-06T02:39:06.869Z,7.58
2019-05-06T02:41:34.770Z,7.87
2019-05-06T02:44:03.517Z,6.90
2019-05-06T02:46:33.825Z,7.78
2019-05-06T02:49:18.153Z,6.03
2019-05-06T02:51:47.505Z,6.87
2019-05-06T02:54:15.754Z,7.33
2019-05-06T02:56:43.799Z,6.97
2019-05-06T02:59:12.921Z,7.12
2019-05-06T03:01:43.273Z,6.87
2019-05-06T03:04:13.203Z,7.17
2019-05-06T03:06:44.436Z,6.47
2019-05-06T03:09:13.592Z,6.50
2019-05-06T03:11:43.877Z,5.90
2019-05-06T03:14:13.876Z,6.75
2019-05-06T03:16:43.978Z,7.03
2019-05-06T03:19:13.376Z,5.80
2019-05-06T03:22:03.801Z,6.30
2019-05-06T03:24:44.075Z,6.65
2019-05-06T03:27:14.330Z,7.53
2019-05-06T03:29:44.570Z,6.70
2019-05-06T03:32:16.477Z,6.20
2019-05-06T03:35:01.093Z,7.00
2019-05-06T03:37:16.963Z,8.05
2019-05-06T03:39:43.424Z,7.70
2019-05-06T03:42:13.692Z,9.13
2019-05-06T03:44:44.566Z,9.53
2019-05-06T03:47:50.382Z,8.50
2019-05-06T03:50:18.433Z,8.00
2019-05-06T03:52:46.403Z,8.95
2019-05-06T03:55:14.384Z,7.75
2019-05-06T03:57:43.375Z,7.28
2019-05-06T04:00:16.010Z,8.30
2019-05-06T04:02:44.155Z,8.55
2019-05-06T04:05:13.266Z,7.85
2019-05-06T04:07:45.444Z,7.50
2019-05-06T04:10:13.670Z,7.60
2019-05-06T04:12:43.893Z,8.15
2019-05-06T04:15:14.082Z,7.85
2019-05-06T04:17:48.807Z,8.80
2019-05-06T04:20:36.463Z,8.83
2019-05-06T04:23:36.551Z,8.78
2019-05-06T04:26:25.574Z,8.55
2019-05-06T04:28:53.679Z,7.17
2019-05-06T04:31:22.862Z,8.30
2019-05-06T04:34:08.501Z,8.65
2019-05-06T04:36:23.569Z,9.05
2019-05-06T04:38:53.726Z,10.00
2019-05-06T04:41:23.156Z,8.43
2019-05-06T04:43:53.351Z,7.65
2019-05-06T04:46:23.607Z,7.20
2019-05-06T04:48:53.878Z,7.35
2019-05-06T04:51:24.409Z,6.60
2019-05-06T04:53:53.742Z,7.10
2019-05-06T04:56:23.726Z,7.95
2019-05-06T04:58:53.847Z,7.15
2019-05-06T05:01:23.153Z,7.28
2019-05-06T05:03:53.824Z,7.55
2019-05-06T05:06:23.142Z,7.35
2019-05-06T05:08:53.217Z,7.97
2019-05-06T05:11:33.741Z,7.60
2019-05-06T05:14:14.486Z,7.70
2019-05-06T05:16:54.488Z,7.35
2019-05-06T05:19:23.104Z,7.42
2019-05-06T05:21:54.959Z,7.60
2019-05-06T05:24:23.992Z,8.10
2019-05-06T05:26:52.317Z,8.10
2019-05-06T05:29:20.407Z,8.43
2019-05-06T05:31:48.685Z,8.83
2019-05-06T05:34:16.611Z,9.23
2019-05-06T05:36:44.596Z,7.65
2019-05-06T05:39:13.133Z,8.08
2019-05-06T05:41:42.882Z,8.78
2019-05-06T05:44:16.140Z,7.87
2019-05-06T05:46:44.287Z,9.35
2019-05-06T05:49:22.589Z,8.60
2019-05-06T05:51:52.058Z,7.55
2019-05-06T05:54:20.060Z,8.20
2019-05-06T05:56:48.055Z,8.08
2019-05-06T05:59:16.234Z,8.13
2019-05-06T06:01:44.364Z,8.48
2019-05-06T06:04:13.020Z,9.03
2019-05-06T06:06:42.372Z,8.05
2019-05-06T06:09:12.693Z,8.65
2019-05-06T06:11:53.262Z,9.00
2019-05-06T06:14:55.740Z,7.17
2019-05-06T06:17:36.215Z,9.10
2019-05-06T06:20:24.857Z,8.25
2019-05-06T06:22:54.752Z,8.58
2019-05-06T06:25:23.592Z,9.00
2019-05-06T06:27:52.373Z,8.00
2019-05-06T06:30:29.065Z,8.20
2019-05-06T06:32:56.962Z,7.97
2019-05-06T06:35:51.982Z,8.35
2019-05-06T06:38:24.918Z,7.95
2019-05-06T06:40:55.604Z,8.08
2019-05-06T06:43:25.042Z,7.78
2019-05-06T06:45:53.196Z,8.40
2019-05-06T06:48:22.888Z,9.33
2019-05-06T06:50:52.266Z,7.45
2019-05-06T06:53:21.837Z,7.30
2019-05-06T06:55:52.367Z,8.08
2019-05-06T06:58:35.324Z,7.55
2019-05-06T07:01:29.586Z,7.70
2019-05-06T07:04:10.519Z,8.10
2019-05-06T07:06:46.515Z,7.55
2019-05-06T07:09:16.199Z,7.50
2019-05-06T07:11:44.213Z,7.78
2019-05-06T07:14:13.730Z,7.50
2019-05-06T07:16:43.065Z,8.20
2019-05-06T07:19:13.426Z,9.45
2019-05-06T07:21:52.318Z,9.15
2019-05-06T07:24:22.679Z,8.55
2019-05-06T07:26:55.051Z,8.90
2019-05-06T07:29:26.279Z,8.88
2019-05-06T07:31:53.492Z,8.70
2019-05-06T07:34:22.870Z,8.78
2019-05-06T07:36:52.449Z,8.10
2019-05-06T07:39:23.776Z,9.25
2019-05-06T07:41:56.999Z,8.50
2019-05-06T07:44:37.356Z,8.40
2019-05-06T07:47:24.042Z,8.05
2019-05-06T07:49:53.150Z,7.78
2019-05-06T07:52:23.066Z,8.78
2019-05-06T07:54:53.324Z,8.30
2019-05-06T07:57:22.065Z,7.30
2019-05-06T07:59:52.372Z,7.40
2019-05-06T08:02:22.619Z,8.18
2019-05-06T08:04:52.966Z,7.78
2019-05-06T08:07:22.285Z,8.13
2019-05-06T08:09:52.841Z,8.65
2019-05-06T08:12:22.310Z,7.60
2019-05-06T08:14:52.406Z,6.78
2019-05-06T08:17:26.727Z,7.80
2019-05-06T08:19:54.786Z,6.92
2019-05-06T08:22:42.402Z,7.10
2019-05-06T08:25:13.302Z,6.50
2019-05-06T08:27:42.617Z,6.50
2019-05-06T08:30:12.890Z,5.90
2019-05-06T08:32:42.486Z,7.70
2019-05-06T08:35:13.347Z,6.10
2019-05-06T08:37:42.635Z,5.78
2019-05-06T08:40:11.983Z,6.33
2019-05-06T08:42:42.635Z,6.90
2019-05-06T08:45:12.822Z,6.35
2019-05-06T08:47:42.628Z,5.03
2019-05-06T08:50:32.519Z,5.65
2019-05-06T08:53:15.059Z,6.65
2019-05-06T08:55:44.387Z,4.65
2019-05-06T08:58:13.934Z,4.60
2019-05-06T09:01:05.365Z,3.75
2019-05-06T09:03:33.360Z,4.05
2019-05-06T09:06:03.131Z,5.80
2019-05-06T09:08:32.433Z,4.42
2019-05-06T09:11:02.959Z,3.80
2019-05-06T09:13:32.656Z,4.67
2019-05-06T09:16:02.486Z,5.33
2019-05-06T09:18:32.925Z,6.42
2019-05-06T09:21:02.966Z,6.30
2019-05-06T09:23:32.700Z,6.00
2019-05-06T09:26:02.672Z,6.87
2019-05-06T09:28:45.865Z,5.97
2019-05-06T09:31:28.205Z,6.70
2019-05-06T09:34:05.065Z,6.60
2019-05-06T09:36:43.918Z,5.95
2019-05-06T09:39:05.409Z,6.62
2019-05-06T09:41:34.040Z,6.05
2019-05-06T09:44:03.158Z,6.08
2019-05-06T09:46:33.475Z,6.40
2019-05-06T09:49:18.457Z,6.25
2019-05-06T09:51:46.499Z,5.83
2019-05-06T09:54:34.204Z,5.67
2019-05-06T09:57:06.072Z,7.10
2019-05-06T09:59:34.020Z,5.42
2019-05-06T10:02:02.159Z,5.47
2019-05-06T10:04:32.376Z,5.92
2019-05-06T10:07:02.527Z,5.22
2019-05-06T10:09:32.669Z,5.83
2019-05-06T10:12:02.068Z,5.20
2019-05-06T10:14:32.179Z,5.75
2019-05-06T10:17:04.202Z,4.92
2019-05-06T10:19:32.042Z,4.15
2019-05-06T10:22:00.167Z,3.55
2019-05-06T10:24:28.203Z,3.52
2019-05-06T10:26:58.300Z,3.70
2019-05-06T10:29:37.943Z,4.60
2019-05-06T10:32:22.488Z,4.85
2019-05-06T10:34:52.613Z,3.70
2019-05-06T10:37:38.352Z,2.92
2019-05-06T10:40:15.570Z,3.58
2019-05-06T10:42:54.213Z,3.27
2019-05-06T10:45:32.180Z,3.85
2019-05-06T10:48:02.179Z,4.00
2019-05-06T10:50:33.678Z,3.52
2019-05-06T10:53:18.951Z,3.50
2019-05-06T10:55:54.953Z,3.05
2019-05-06T10:58:23.018Z,2.80
2019-05-06T11:00:58.078Z,2.72
2019-05-06T11:03:27.710Z,3.05
2019-05-06T11:05:56.233Z,2.90
2019-05-06T11:08:24.372Z,3.02
2019-05-06T11:10:53.541Z,3.08
2019-05-06T11:13:24.463Z,2.87
2019-05-06T11:15:55.547Z,3.20
2019-05-06T11:18:23.496Z,2.67
2019-05-06T11:20:55.822Z,3.52
2019-05-06T11:23:22.219Z,3.40
2019-05-06T11:25:52.478Z,2.92
2019-05-06T11:28:42.748Z,2.83
2019-05-06T11:31:32.948Z,3.15
2019-05-06T11:34:21.992Z,3.02
2019-05-06T11:37:08.298Z,3.70
2019-05-06T11:39:36.261Z,3.87
2019-05-06T11:42:23.846Z,3.05
2019-05-06T11:44:34.141Z,2.95
2019-05-06T11:47:03.363Z,3.20
2019-05-06T11:49:32.666Z,3.67
2019-05-06T11:52:02.400Z,3.67
2019-05-06T11:54:33.573Z,3.60
2019-05-06T11:57:02.904Z,3.40
2019-05-06T11:59:31.276Z,3.65
2019-05-06T12:02:02.635Z,4.25
2019-05-06T12:04:32.887Z,3.22
2019-05-06T12:07:10.297Z,3.87
2019-05-06T12:09:33.027Z,3.80
2019-05-06T12:12:03.249Z,5.30
2019-05-06T12:14:31.945Z,5.08
2019-05-06T12:17:02.225Z,4.47
2019-05-06T12:19:32.446Z,4.50
2019-05-06T12:22:00.699Z,4.47
2019-05-06T12:24:29.181Z,3.87
2019-05-06T12:26:57.515Z,4.72
2019-05-06T12:29:25.732Z,5.15
2019-05-06T12:32:08.935Z,4.62
2019-05-06T12:34:36.848Z,4.60
2019-05-06T12:37:07.080Z,3.77
2019-05-06T12:39:35.386Z,3.40
2019-05-06T12:42:16.224Z,3.17
2019-05-06T12:45:13.045Z,3.80
2019-05-06T12:47:54.760Z,3.85
2019-05-06T12:50:23.020Z,5.10
2019-05-06T12:52:52.531Z,3.50
2019-05-06T12:55:25.223Z,4.50
2019-05-06T12:57:53.275Z,5.37
2019-05-06T13:00:23.587Z,4.92
2019-05-06T13:02:53.105Z,4.78
2019-05-06T13:05:21.506Z,4.00
2019-05-06T13:07:49.543Z,3.50
2019-05-06T13:10:23.140Z,3.50
2019-05-06T13:13:01.463Z,3.42
2019-05-06T13:15:29.487Z,2.98
2019-05-06T13:17:57.755Z,3.62
2019-05-06T13:20:25.677Z,3.00
2019-05-06T13:23:20.699Z,4.33
2019-05-06T13:25:45.485Z,4.33
2019-05-06T13:28:15.945Z,4.80
2019-05-06T13:30:44.468Z,4.87
2019-05-06T13:33:34.142Z,5.80
2019-05-06T13:36:02.427Z,5.00
2019-05-06T13:38:32.114Z,5.95
2019-05-06T13:41:00.318Z,6.17
2019-05-06T13:43:36.679Z,5.83
2019-05-06T13:46:12.912Z,5.05
2019-05-06T13:48:46.120Z,5.22
2019-05-06T13:51:16.908Z,5.30
2019-05-06T13:53:46.335Z,5.12
2019-05-06T13:56:14.520Z,3.55
2019-05-06T13:58:43.219Z,3.20
2019-05-06T14:01:15.297Z,3.58
2019-05-06T14:03:43.412Z,3.60
2019-05-06T14:06:12.256Z,4.20
2019-05-06T14:08:42.299Z,3.60
2019-05-06T14:11:10.364Z,3.22
2019-05-06T14:13:38.488Z,3.25
2019-05-06T14:16:06.455Z,3.30
2019-05-06T14:18:37.639Z,3.40
2019-05-06T14:21:05.044Z,3.30
2019-05-06T14:23:33.211Z,3.15
2019-05-06T14:26:23.096Z,3.58
2019-05-06T14:28:58.606Z,2.87
2019-05-06T14:31:29.281Z,3.10
2019-05-06T14:33:57.350Z,3.52
2019-05-06T14:36:27.502Z,3.80
2019-05-06T14:38:55.344Z,2.90
2019-05-06T14:41:27.215Z,2.98
2019-05-06T14:43:55.410Z,3.22
2019-05-06T14:46:24.152Z,3.85
2019-05-06T14:48:53.390Z,2.98
2019-05-06T14:51:22.300Z,2.50
2019-05-06T14:53:53.040Z,3.60
2019-05-06T14:56:55.276Z,2.98
2019-05-06T14:59:23.599Z,2.87
2019-05-06T15:01:53.673Z,3.50
2019-05-06T15:04:22.985Z,2.87
2019-05-06T15:06:53.004Z,3.30
2019-05-06T15:09:22.562Z,2.67
2019-05-06T15:11:50.904Z,2.83
2019-05-06T15:14:19.236Z,2.17
2019-05-06T15:16:47.207Z,3.45
2019-05-06T15:19:15.778Z,3.17
2019-05-06T15:21:43.783Z,2.98
2019-05-06T15:24:14.678Z,3.00
2019-05-06T15:26:43.213Z,3.77
2019-05-06T15:29:12.629Z,2.50
2019-05-06T15:31:59.080Z,2.92
2019-05-06T15:34:35.109Z,2.95
2019-05-06T15:37:13.285Z,2.70
2019-05-06T15:39:43.786Z,3.00
2019-05-06T15:42:12.809Z,2.77
2019-05-06T15:44:42.460Z,2.60
2019-05-06T15:47:13.121Z,2.80
2019-05-06T15:49:41.976Z,2.62
2019-05-06T15:52:12.322Z,2.80
2019-05-06T15:54:42.879Z,3.02
2019-05-06T15:57:10.580Z,2.50
2019-05-06T15:59:41.423Z,2.72
2019-05-06T16:02:09.178Z,3.30
2019-05-06T16:04:37.151Z,2.83
2019-05-06T16:07:05.119Z,2.20
2019-05-06T16:09:33.511Z,2.80
2019-05-06T16:12:03.117Z,3.15
2019-05-06T16:14:34.548Z,2.72
2019-05-06T16:17:01.689Z,2.75
2019-05-06T16:19:29.794Z,2.62
2019-05-06T16:21:57.905Z,2.92
2019-05-06T16:24:35.106Z,3.12
2019-05-06T16:27:03.157Z,2.67
2019-05-06T16:29:37.196Z,2.22
2019-05-06T16:32:08.700Z,3.05
2019-05-06T16:34:36.971Z,2.70
2019-05-06T16:37:05.113Z,2.40
2019-05-06T16:39:33.590Z,2.65
2019-05-06T16:42:03.533Z,2.85
2019-05-06T16:44:31.591Z,3.72
2019-05-06T16:46:59.699Z,2.90
2019-05-06T16:49:27.938Z,2.47
2019-05-06T16:51:56.627Z,2.25
2019-05-06T16:54:27.849Z,2.20
2019-05-06T16:57:02.333Z,3.47
2019-05-06T16:59:33.219Z,2.70
2019-05-06T17:02:04.102Z,2.35
2019-05-06T17:04:44.728Z,2.45
2019-05-06T17:07:13.070Z,2.45
2019-05-06T17:09:42.962Z,2.22
2019-05-06T17:12:12.819Z,1.92
2019-05-06T17:14:42.832Z,2.15
2019-05-06T17:17:11.234Z,2.45
2019-05-06T17:19:42.046Z,2.00
2019-05-06T17:22:12.228Z,1.82
2019-05-06T17:24:42.186Z,1.70
2019-05-06T17:27:12.105Z,1.65
2019-05-06T17:30:00.341Z,2.60
2019-05-06T17:32:42.018Z,1.65
2019-05-06T17:35:12.598Z,1.55
2019-05-06T17:38:13.325Z,1.52
2019-05-06T17:40:42.881Z,1.60
2019-05-06T17:43:12.971Z,1.35
2019-05-06T17:46:01.056Z,2.27
2019-05-06T17:48:47.305Z,1.80
2019-05-06T17:51:22.414Z,1.77
2019-05-06T17:53:52.673Z,1.32
2019-05-06T17:56:22.279Z,1.90
2019-05-06T17:58:53.268Z,2.45
2019-05-06T18:01:26.556Z,2.20
2019-05-06T18:03:54.657Z,1.72
2019-05-06T18:06:23.014Z,1.27
2019-05-06T18:08:52.803Z,1.50
2019-05-06T18:11:22.413Z,1.52
2019-05-06T18:13:52.119Z,1.80
2019-05-06T18:16:22.249Z,1.82
2019-05-06T18:18:52.354Z,1.95
2019-05-06T18:21:22.782Z,1.92
2019-05-06T18:23:52.297Z,1.50
2019-05-06T18:26:22.787Z,1.80
2019-05-06T18:28:52.607Z,1.87
2019-05-06T18:31:22.123Z,1.90
2019-05-06T18:33:52.613Z,1.70
2019-05-06T18:36:22.665Z,1.75
2019-05-06T18:38:52.493Z,1.98
2019-05-06T18:41:20.714Z,1.60
2019-05-06T18:43:48.785Z,1.72
2019-05-06T18:46:16.889Z,1.60
2019-05-06T18:48:44.871Z,2.15
2019-05-06T18:51:13.005Z,1.55
2019-05-06T18:53:42.263Z,1.47
2019-05-06T18:56:12.553Z,2.08
2019-05-06T18:58:42.751Z,1.47
2019-05-06T19:01:13.150Z,1.55
2019-05-06T19:04:00.376Z,1.92
2019-05-06T19:06:28.818Z,1.92
2019-05-06T19:09:03.792Z,1.32
2019-05-06T19:11:34.690Z,1.60
2019-05-06T19:14:03.904Z,1.62
2019-05-06T19:16:48.323Z,1.65
2019-05-06T19:19:05.743Z,2.35
2019-05-06T19:21:32.788Z,1.65
2019-05-06T19:24:02.780Z,1.45
2019-05-06T19:26:32.325Z,1.72
2019-05-06T19:29:04.383Z,1.92
2019-05-06T19:31:32.600Z,2.12
2019-05-06T19:34:03.181Z,1.52
2019-05-06T19:36:34.181Z,1.98
2019-05-06T19:39:02.236Z,1.80
2019-05-06T19:41:33.172Z,1.72
2019-05-06T19:44:02.193Z,2.15
2019-05-06T19:46:32.566Z,2.08
2019-05-06T19:49:01.834Z,2.47
2019-05-06T19:51:32.856Z,2.08
2019-05-06T19:54:02.255Z,2.20
2019-05-06T19:56:31.212Z,1.80
2019-05-06T19:58:59.502Z,1.77
2019-05-06T20:01:28.278Z,2.05
2019-05-06T20:03:56.565Z,2.27
2019-05-06T20:06:39.964Z,2.55
2019-05-06T20:09:47.292Z,2.65
2019-05-06T20:12:32.786Z,2.42
2019-05-06T20:15:19.702Z,2.12
2019-05-06T20:17:47.943Z,2.50
2019-05-06T20:20:15.935Z,2.52
2019-05-06T20:22:44.032Z,2.27
2019-05-06T20:25:12.549Z,2.65
2019-05-06T20:27:42.111Z,1.90
2019-05-06T20:30:10.442Z,4.37
2019-05-06T20:32:38.770Z,7.20
2019-05-06T20:35:08.096Z,3.87
2019-05-06T20:37:36.420Z,3.08
2019-05-06T20:40:05.412Z,3.58
2019-05-06T20:42:33.559Z,2.22
2019-05-06T20:45:02.217Z,2.20
2019-05-06T20:47:32.030Z,2.40
2019-05-06T20:50:02.338Z,2.35
2019-05-06T20:52:31.150Z,2.85
2019-05-06T20:55:00.369Z,2.37
2019-05-06T20:57:28.407Z,2.30
2019-05-06T20:59:56.493Z,2.12
2019-05-06T21:02:25.888Z,2.65
2019-05-06T21:04:54.194Z,2.42
2019-05-06T21:07:23.186Z,2.25
2019-05-06T21:09:52.517Z,2.27
2019-05-06T21:12:21.847Z,2.20
2019-05-06T21:14:50.019Z,2.87
2019-05-06T21:17:18.095Z,2.60
2019-05-06T21:19:46.143Z,2.75
2019-05-06T21:22:14.247Z,2.62
2019-05-06T21:24:43.241Z,3.12
2019-05-06T21:27:12.394Z,1.85
2019-05-06T21:29:42.008Z,2.87
2019-05-06T21:32:10.149Z,2.58
2019-05-06T21:34:38.363Z,2.80
2019-05-06T21:37:07.658Z,2.02
2019-05-06T21:39:36.012Z,3.30
2019-05-06T21:42:04.076Z,2.85
2019-05-06T21:44:32.659Z,2.95
2019-05-06T21:47:02.947Z,2.72
2019-05-06T21:49:32.646Z,3.10
2019-05-06T21:52:02.086Z,2.35
2019-05-06T21:54:32.533Z,2.80
2019-05-06T21:57:02.706Z,2.50
2019-05-06T21:59:30.414Z,3.47
2019-05-06T22:01:58.927Z,2.67
2019-05-06T22:04:26.956Z,2.50
2019-05-06T22:06:54.925Z,3.20
2019-05-06T22:09:23.114Z,2.70
2019-05-06T22:11:52.941Z,3.15
2019-05-06T22:14:23.616Z,2.77
2019-05-06T22:16:51.838Z,2.95
2019-05-06T22:19:19.776Z,3.22
2019-05-06T22:22:12.025Z,2.67
2019-05-06T22:24:47.169Z,3.50
2019-05-06T22:27:15.878Z,2.92
2019-05-06T22:29:43.909Z,3.95
2019-05-06T22:32:14.902Z,2.90
2019-05-06T22:34:42.644Z,3.95
2019-05-06T22:37:12.546Z,3.35
2019-05-06T22:39:43.275Z,3.15
2019-05-06T22:42:10.866Z,3.25
2019-05-06T22:44:38.890Z,3.10
2019-05-06T22:47:06.902Z,3.47
2019-05-06T22:49:35.353Z,3.37
2019-05-06T22:52:03.859Z,3.80
2019-05-06T22:54:32.123Z,3.00
2019-05-06T22:57:02.333Z,3.60
2019-05-06T22:59:33.060Z,3.20
2019-05-06T23:02:08.877Z,3.40
2019-05-06T23:04:37.860Z,3.33
2019-05-06T23:07:05.999Z,3.42
2019-05-06T23:09:34.471Z,3.33
2019-05-06T23:12:04.777Z,3.42
2019-05-06T23:14:36.873Z,4.30
2019-05-06T23:17:03.449Z,3.60
2019-05-06T23:19:31.854Z,4.30
2019-05-06T23:22:03.979Z,4.12
2019-05-06T23:24:32.023Z,3.50
2019-05-06T23:27:01.918Z,3.27
2019-05-06T23:29:30.119Z,3.77
2019-05-06T23:31:58.226Z,3.37
2019-05-06T23:34:26.251Z,3.72
2019-05-06T23:37:17.241Z,4.20
2019-05-06T23:40:42.762Z,3.75
2019-05-06T23:44:05.777Z,3.62
2019-05-06T23:47:29.481Z,3.90
2019-05-06T23:50:52.714Z,3.85
2019-05-06T23:54:16.109Z,5.33
2019-05-06T23:56:45.098Z,3.85
2019-05-06T23:59:15.732Z,3.60
